Fianarantsoa Airport


Codes: FMSF/WFI
Name: Fianarantsoa Airport
City:
Country: Madagascar
Elevation: 3658 ft.
Wikipedia:

Photos at Fianarantsoa Airport


   Photos courtesy of SpottingLog. You can add your own sightings and photos by signing up for a free trial today.



No photos found.

Weather at Fianarantsoa Airport


Time (UTC)DescriptionTempratureWindCloud coverageVisibilityPressureHumidity
16-Jun-2024 09:00Clear Sky23°C2 mph, NE3%10000m1018hPa50%
16-Jun-2024 12:00Clear Sky23°C2 mph, SE6%10000m1018hPa51%
16-Jun-2024 15:00Few Clouds17°C4 mph, E20%10000m1019hPa82%
16-Jun-2024 18:00Scattered Clouds14°C4 mph, E42%3726m1022hPa97%
16-Jun-2024 21:00Overcast Clouds15°C4 mph, E95%10000m1021hPa94%
17-Jun-2024 00:00Overcast Clouds14°C2 mph, E95%4989m1021hPa97%
17-Jun-2024 03:00Overcast Clouds14°C2 mph, E95%10000m1022hPa97%
17-Jun-2024 06:00Broken Clouds17°C4 mph, NE76%10000m1023hPa80%
17-Jun-2024 09:00Scattered Clouds21°C2 mph, NE42%10000m1021hPa58%
17-Jun-2024 12:00Scattered Clouds21°C4 mph, SE30%10000m1019hPa53%
17-Jun-2024 15:00Scattered Clouds15°C4 mph, E41%10000m1022hPa96%
17-Jun-2024 18:00Broken Clouds15°C4 mph, E62%10000m1023hPa90%
17-Jun-2024 21:00Light Rain14°C4 mph, E93%10000m1023hPa95%
18-Jun-2024 00:00Overcast Clouds13°C4 mph, E96%10000m1022hPa95%
18-Jun-2024 03:00Broken Clouds13°C2 mph, E77%10000m1022hPa97%
18-Jun-2024 06:00Broken Clouds16°C4 mph, E64%10000m1023hPa82%
18-Jun-2024 09:00Broken Clouds19°C4 mph, E54%10000m1021hPa63%
18-Jun-2024 12:00Scattered Clouds20°C7 mph, E42%10000m1019hPa57%
18-Jun-2024 15:00Clear Sky13°C4 mph, E9%10000m1022hPa97%
18-Jun-2024 18:00Scattered Clouds14°C4 mph, E44%10000m1023hPa88%
18-Jun-2024 21:00Overcast Clouds14°C4 mph, E99%10000m1023hPa86%
19-Jun-2024 00:00Overcast Clouds13°C4 mph, E97%10000m1022hPa89%
19-Jun-2024 03:00Scattered Clouds11°C2 mph, E43%10000m1023hPa95%
19-Jun-2024 06:00Scattered Clouds16°C2 mph, E26%10000m1023hPa75%
19-Jun-2024 09:00Clear Sky20°C7 mph, E5%10000m1020hPa53%
19-Jun-2024 12:00Clear Sky20°C7 mph, E7%10000m1019hPa58%
19-Jun-2024 15:00Few Clouds13°C4 mph, E18%10000m1021hPa98%
19-Jun-2024 18:00Scattered Clouds14°C4 mph, E49%10000m1023hPa86%
19-Jun-2024 21:00Overcast Clouds14°C4 mph, E100%10000m1023hPa79%
20-Jun-2024 00:00Overcast Clouds12°C4 mph, E90%10000m1023hPa91%
20-Jun-2024 03:00Clear Sky10°C2 mph, E7%10000m1024hPa97%
20-Jun-2024 06:00Few Clouds15°C7 mph, E12%10000m1025hPa75%
20-Jun-2024 09:00Clear Sky19°C7 mph, E7%10000m1023hPa54%
20-Jun-2024 12:00Clear Sky19°C7 mph, E6%10000m1022hPa56%
20-Jun-2024 15:00Clear Sky12°C4 mph, E5%10000m1024hPa92%
20-Jun-2024 18:00Clear Sky10°C2 mph, E3%10000m1027hPa98%
20-Jun-2024 21:00Scattered Clouds10°C4 mph, E44%10000m1026hPa97%
21-Jun-2024 00:00Broken Clouds12°C7 mph, E68%10000m1025hPa85%
21-Jun-2024 03:00Overcast Clouds12°C7 mph, E92%10000m1026hPa84%
21-Jun-2024 06:00Overcast Clouds15°C9 mph, E85%10000m1027hPa70%